createdAt,value
2023-06-22T00:01:49.975Z,59.51
2023-06-22T00:04:17.528Z,58.68
2023-06-22T00:06:45.031Z,58.78
2023-06-22T00:09:12.486Z,58.69
2023-06-22T00:11:40.037Z,58.54
2023-06-22T00:14:07.519Z,58.25
2023-06-22T00:16:35.049Z,58.35
2023-06-22T00:19:03.644Z,58.08
2023-06-22T00:21:32.102Z,58.14
2023-06-22T00:23:59.610Z,58.97
2023-06-22T00:26:26.990Z,58.47
2023-06-22T00:28:54.413Z,58.57
2023-06-22T00:31:21.842Z,58.77
2023-06-22T00:33:51.665Z,58.70
2023-06-22T00:36:20.280Z,58.98
2023-06-22T00:38:47.706Z,59.35
2023-06-22T00:41:15.116Z,59.93
2023-06-22T00:43:43.352Z,60.75
2023-06-22T00:46:10.952Z,60.86
2023-06-22T00:48:38.457Z,60.96
2023-06-22T00:51:06.370Z,61.02
2023-06-22T00:53:36.418Z,60.85
2023-06-22T00:56:05.029Z,60.80
2023-06-22T00:58:33.139Z,61.04
2023-06-22T01:01:01.620Z,61.30
2023-06-22T01:03:29.384Z,61.61
2023-06-22T01:06:10.423Z,61.58
2023-06-22T01:08:52.899Z,61.42
2023-06-22T01:11:29.393Z,61.50
2023-06-22T01:14:07.705Z,61.96
2023-06-22T01:16:36.751Z,62.29
2023-06-22T01:19:31.966Z,62.16
2023-06-22T01:22:01.835Z,61.76
2023-06-22T01:24:42.590Z,62.53
2023-06-22T01:27:13.013Z,62.14
2023-06-22T01:29:41.784Z,62.55
2023-06-22T01:32:10.377Z,61.96
2023-06-22T01:34:41.377Z,61.54
2023-06-22T01:37:10.879Z,61.88
2023-06-22T01:39:38.761Z,62.43
2023-06-22T01:42:07.367Z,62.51
2023-06-22T01:44:35.538Z,62.35
2023-06-22T01:47:03.315Z,61.73
2023-06-22T01:49:31.376Z,62.21
2023-06-22T01:51:59.375Z,62.52
2023-06-22T01:54:26.801Z,62.35
2023-06-22T01:56:56.136Z,62.97
2023-06-22T01:59:38.604Z,63.00
2023-06-22T02:02:09.073Z,62.87
2023-06-22T02:04:48.887Z,62.69
2023-06-22T02:07:20.139Z,62.19
2023-06-22T02:09:53.034Z,62.14
2023-06-22T02:12:24.729Z,62.36
2023-06-22T02:14:57.291Z,62.50
2023-06-22T02:17:27.224Z,62.43
2023-06-22T02:19:55.080Z,62.65
2023-06-22T02:22:22.490Z,63.13
2023-06-22T02:24:49.919Z,63.26
2023-06-22T02:27:17.394Z,63.40
2023-06-22T02:29:45.012Z,63.38
2023-06-22T02:32:12.528Z,63.95
2023-06-22T02:34:40.662Z,64.06
2023-06-22T02:37:08.148Z,64.15
2023-06-22T02:39:35.640Z,63.72
2023-06-22T02:42:03.756Z,63.69
2023-06-22T02:44:31.113Z,64.05
2023-06-22T02:46:59.148Z,64.67
2023-06-22T02:49:26.984Z,64.54
2023-06-22T02:51:55.062Z,64.45
2023-06-22T02:54:23.330Z,64.13
2023-06-22T02:57:14.689Z,64.00
2023-06-22T02:59:43.665Z,64.40
2023-06-22T03:02:13.306Z,64.55
2023-06-22T03:04:41.486Z,64.87
2023-06-22T03:07:08.982Z,64.78
2023-06-22T03:09:36.471Z,64.51
2023-06-22T03:12:04.362Z,64.55
2023-06-22T03:14:43.451Z,64.44
2023-06-22T03:17:12.060Z,64.78
2023-06-22T03:19:39.720Z,64.90
2023-06-22T03:22:08.678Z,64.87
2023-06-22T03:24:38.334Z,64.71
2023-06-22T03:27:06.887Z,64.70
2023-06-22T03:29:35.683Z,64.45
2023-06-22T03:32:03.647Z,64.90
2023-06-22T03:34:34.618Z,64.95
2023-06-22T03:37:02.439Z,64.67
2023-06-22T03:39:29.960Z,64.67
2023-06-22T03:41:58.811Z,64.60
2023-06-22T03:44:26.405Z,64.21
2023-06-22T03:46:54.003Z,64.34
2023-06-22T03:49:21.620Z,64.49
2023-06-22T03:51:49.122Z,64.60
2023-06-22T03:54:16.602Z,65.03
2023-06-22T03:56:44.008Z,65.38
2023-06-22T03:59:11.440Z,65.67
2023-06-22T04:01:39.243Z,65.80
2023-06-22T04:04:06.937Z,65.59
2023-06-22T04:06:35.706Z,65.64
2023-06-22T04:09:03.672Z,65.58
2023-06-22T04:11:31.170Z,65.14
2023-06-22T04:13:58.756Z,65.02
2023-06-22T04:16:26.276Z,64.82
2023-06-22T04:19:17.378Z,65.49
2023-06-22T04:21:45.686Z,65.33
2023-06-22T04:24:13.152Z,64.89
2023-06-22T04:26:42.678Z,64.28
2023-06-22T04:29:10.116Z,64.98
2023-06-22T04:31:38.071Z,65.38
2023-06-22T04:34:07.768Z,65.19
2023-06-22T04:36:41.163Z,64.99
2023-06-22T04:39:12.477Z,65.30
2023-06-22T04:41:44.419Z,65.37
2023-06-22T04:44:25.098Z,65.13
2023-06-22T04:47:09.704Z,65.30
2023-06-22T04:49:38.305Z,65.94
2023-06-22T04:52:08.060Z,65.38
2023-06-22T04:54:37.482Z,65.20
2023-06-22T04:57:11.442Z,65.22
2023-06-22T04:59:43.225Z,65.20
2023-06-22T05:02:11.255Z,65.18
2023-06-22T05:04:40.578Z,65.10
2023-06-22T05:07:08.702Z,65.31
2023-06-22T05:09:36.108Z,65.10
2023-06-22T05:12:06.598Z,64.38
2023-06-22T05:14:35.308Z,64.85
2023-06-22T05:17:05.098Z,65.15
2023-06-22T05:19:35.340Z,64.95
2023-06-22T05:22:03.276Z,65.28
2023-06-22T05:24:30.702Z,65.19
2023-06-22T05:26:58.228Z,64.93
2023-06-22T05:29:25.757Z,65.01
2023-06-22T05:31:53.154Z,64.77
2023-06-22T05:34:20.586Z,63.34
2023-06-22T05:36:48.096Z,63.13
2023-06-22T05:39:16.265Z,63.63
2023-06-22T05:41:44.621Z,63.75
2023-06-22T05:44:12.128Z,63.08
2023-06-22T05:46:47.883Z,63.06
2023-06-22T05:49:19.481Z,61.80
2023-06-22T05:51:47.056Z,62.69
2023-06-22T05:54:16.827Z,61.49
2023-06-22T05:56:44.329Z,60.28
2023-06-22T05:59:13.602Z,58.51
2023-06-22T06:01:41.496Z,58.87
2023-06-22T06:04:11.871Z,59.84
2023-06-22T06:06:39.388Z,60.14
2023-06-22T06:09:08.743Z,60.21
2023-06-22T06:11:37.027Z,60.32
2023-06-22T06:14:04.553Z,59.91
2023-06-22T06:16:34.814Z,60.04
2023-06-22T06:19:02.329Z,59.95
2023-06-22T06:21:31.224Z,60.08
2023-06-22T06:23:59.782Z,60.04
2023-06-22T06:26:30.690Z,59.81
2023-06-22T06:28:58.744Z,60.07
2023-06-22T06:31:30.790Z,60.43
2023-06-22T06:33:58.559Z,60.55
2023-06-22T06:36:26.144Z,61.32
2023-06-22T06:38:53.842Z,61.93
2023-06-22T06:41:22.161Z,61.90
2023-06-22T06:43:50.680Z,61.84
2023-06-22T06:46:19.869Z,62.58
2023-06-22T06:48:47.460Z,63.29
2023-06-22T06:51:15.132Z,63.10
2023-06-22T06:53:42.898Z,63.06
2023-06-22T06:56:11.823Z,63.12
2023-06-22T06:58:43.583Z,63.48
2023-06-22T07:01:11.056Z,63.04
2023-06-22T07:03:39.741Z,63.40
2023-06-22T07:06:07.650Z,62.91
2023-06-22T07:08:36.341Z,62.50
2023-06-22T07:11:10.341Z,62.86
2023-06-22T07:13:38.209Z,62.82
2023-06-22T07:16:05.766Z,62.62
2023-06-22T07:18:33.189Z,61.97
2023-06-22T07:21:00.772Z,61.88
2023-06-22T07:23:28.228Z,61.82
2023-06-22T07:25:55.926Z,61.31
2023-06-22T07:28:23.380Z,61.17
2023-06-22T07:30:52.432Z,61.38
2023-06-22T07:33:20.698Z,61.25
2023-06-22T07:35:49.821Z,61.11
2023-06-22T07:38:17.256Z,61.66
2023-06-22T07:40:45.423Z,61.60
2023-06-22T07:43:13.038Z,60.81
2023-06-22T07:45:41.635Z,60.28
2023-06-22T07:48:09.125Z,59.13
2023-06-22T07:50:36.583Z,58.75
2023-06-22T07:53:04.061Z,56.61
2023-06-22T07:55:31.734Z,55.21
2023-06-22T07:57:59.483Z,54.39
2023-06-22T08:00:27.112Z,55.42
2023-06-22T08:02:55.608Z,54.68
2023-06-22T08:05:23.422Z,54.10
2023-06-22T08:07:51.655Z,54.36
2023-06-22T08:10:20.212Z,54.44
2023-06-22T08:12:47.744Z,53.92
2023-06-22T08:15:15.633Z,53.52
2023-06-22T08:17:43.156Z,53.10
2023-06-22T08:20:13.179Z,53.36
2023-06-22T08:22:42.121Z,51.82
2023-06-22T08:25:10.542Z,51.78
2023-06-22T08:27:38.394Z,51.59
2023-06-22T08:30:07.512Z,51.05
2023-06-22T08:32:35.149Z,50.81
2023-06-22T08:35:10.534Z,50.50
2023-06-22T08:37:42.319Z,49.84
2023-06-22T08:40:11.992Z,50.07
2023-06-22T08:42:41.939Z,50.44
2023-06-22T08:45:10.221Z,50.41
2023-06-22T08:47:37.710Z,50.51
2023-06-22T08:50:07.772Z,51.56
2023-06-22T08:52:35.704Z,51.27
2023-06-22T08:55:03.562Z,51.26
2023-06-22T08:57:33.849Z,50.95
2023-06-22T09:00:02.248Z,50.92
2023-06-22T09:02:33.196Z,50.76
2023-06-22T09:05:01.224Z,50.41
2023-06-22T09:07:28.901Z,50.24
2023-06-22T09:09:57.163Z,49.63
2023-06-22T09:12:35.020Z,49.48
2023-06-22T09:15:03.822Z,50.18
2023-06-22T09:17:32.710Z,49.12
2023-06-22T09:20:01.774Z,49.42
2023-06-22T09:22:30.365Z,49.06
2023-06-22T09:24:57.864Z,47.69
2023-06-22T09:27:29.975Z,48.02
2023-06-22T09:29:59.657Z,48.33
2023-06-22T09:32:27.166Z,48.31
2023-06-22T09:34:54.604Z,48.46
2023-06-22T09:37:23.161Z,46.46
2023-06-22T09:39:50.561Z,45.67
2023-06-22T09:42:19.280Z,46.66
2023-06-22T09:44:46.707Z,44.17
2023-06-22T09:47:14.176Z,45.05
2023-06-22T09:49:48.481Z,44.05
2023-06-22T09:52:17.203Z,43.51
2023-06-22T09:54:44.760Z,43.43
2023-06-22T09:57:12.260Z,43.57
2023-06-22T09:59:41.102Z,43.53
2023-06-22T10:02:09.211Z,43.08
2023-06-22T10:04:37.979Z,42.30
2023-06-22T10:07:06.175Z,42.13
2023-06-22T10:09:33.708Z,41.48
2023-06-22T10:12:01.668Z,41.69
2023-06-22T10:14:30.816Z,40.98
2023-06-22T10:17:00.100Z,40.20
2023-06-22T10:19:27.856Z,39.81
2023-06-22T10:21:56.875Z,40.74
2023-06-22T10:24:24.801Z,41.05
2023-06-22T10:26:52.382Z,41.20
2023-06-22T10:29:21.697Z,40.16
2023-06-22T10:31:49.230Z,40.74
2023-06-22T10:34:16.706Z,40.36
2023-06-22T10:36:44.285Z,41.31
2023-06-22T10:39:11.756Z,41.32
2023-06-22T10:41:39.194Z,42.24
2023-06-22T10:44:06.928Z,41.96
2023-06-22T10:46:34.356Z,41.91
2023-06-22T10:49:01.922Z,42.35
2023-06-22T10:51:29.914Z,42.31
2023-06-22T10:53:57.426Z,41.94
2023-06-22T10:56:24.968Z,42.06
2023-06-22T10:58:52.537Z,42.11
2023-06-22T11:01:35.209Z,42.00
2023-06-22T11:04:05.310Z,40.54
2023-06-22T11:06:39.553Z,41.48
2023-06-22T11:11:39.815Z,41.35
2023-06-22T11:14:07.238Z,41.53
2023-06-22T11:16:35.841Z,41.51
2023-06-22T11:19:07.711Z,41.57
2023-06-22T11:21:35.147Z,40.38
2023-06-22T11:24:04.468Z,40.28
2023-06-22T11:26:32.987Z,40.57
2023-06-22T11:29:00.995Z,40.53
2023-06-22T11:31:28.548Z,39.29
2023-06-22T11:33:56.109Z,39.39
2023-06-22T11:36:23.575Z,40.27
2023-06-22T11:38:51.072Z,39.48
2023-06-22T11:41:18.733Z,38.31
2023-06-22T11:43:46.293Z,39.51
2023-06-22T11:46:13.780Z,39.53
2023-06-22T11:48:41.455Z,40.04
2023-06-22T11:51:09.865Z,40.74
2023-06-22T11:53:43.261Z,41.09
2023-06-22T11:56:12.085Z,40.95
2023-06-22T11:58:39.553Z,41.55
2023-06-22T12:01:06.958Z,41.49
2023-06-22T12:03:34.456Z,40.93
2023-06-22T12:06:02.214Z,40.98
2023-06-22T12:08:29.873Z,40.34
2023-06-22T12:10:57.298Z,40.87
2023-06-22T12:13:24.734Z,40.75
2023-06-22T12:15:56.553Z,40.81
2023-06-22T12:18:23.923Z,40.11
2023-06-22T12:20:51.525Z,40.61
2023-06-22T12:23:19.097Z,40.34
2023-06-22T12:25:46.903Z,39.98
2023-06-22T12:28:15.739Z,40.54
2023-06-22T12:30:43.224Z,40.46
2023-06-22T12:33:11.564Z,40.91
2023-06-22T12:35:39.193Z,39.58
2023-06-22T12:38:09.697Z,40.12
2023-06-22T12:40:37.241Z,40.13
2023-06-22T12:43:04.662Z,41.34
2023-06-22T12:45:34.862Z,40.91
2023-06-22T12:48:03.378Z,41.35
2023-06-22T12:50:31.101Z,41.32
2023-06-22T12:52:59.137Z,39.94
2023-06-22T12:55:27.133Z,40.05
2023-06-22T12:57:54.946Z,39.83
2023-06-22T13:00:23.341Z,39.50
2023-06-22T13:02:50.936Z,39.62
2023-06-22T13:05:20.078Z,38.83
2023-06-22T13:07:48.112Z,39.28
2023-06-22T13:10:19.435Z,39.41
2023-06-22T13:12:47.438Z,38.21
2023-06-22T13:15:14.807Z,38.94
2023-06-22T13:17:43.655Z,39.87
2023-06-22T13:20:11.904Z,39.48
2023-06-22T13:22:43.777Z,39.91
2023-06-22T13:25:16.491Z,40.12
2023-06-22T13:27:48.300Z,40.07
2023-06-22T13:30:16.004Z,39.01
2023-06-22T13:32:44.072Z,38.79
2023-06-22T13:35:12.751Z,36.91
2023-06-22T13:37:40.169Z,38.10
2023-06-22T13:40:09.081Z,38.17
2023-06-22T13:42:36.789Z,39.01
2023-06-22T13:45:04.849Z,39.17
2023-06-22T13:47:32.784Z,39.22
2023-06-22T13:50:00.748Z,38.91
2023-06-22T13:52:28.244Z,38.42
2023-06-22T13:54:55.782Z,38.30
2023-06-22T13:57:23.249Z,37.59
2023-06-22T13:59:51.337Z,37.71
2023-06-22T14:02:18.954Z,38.35
2023-06-22T14:04:46.935Z,38.45
2023-06-22T14:07:15.223Z,39.23
2023-06-22T14:09:42.801Z,38.48
2023-06-22T14:12:11.457Z,38.77
2023-06-22T14:14:38.952Z,37.99
2023-06-22T14:17:06.624Z,37.79
2023-06-22T14:19:34.063Z,37.91
2023-06-22T14:22:11.354Z,35.90
2023-06-22T14:24:39.094Z,36.93
2023-06-22T14:27:08.863Z,37.73
2023-06-22T14:29:36.862Z,38.54
2023-06-22T14:32:07.542Z,38.95
2023-06-22T14:34:40.582Z,38.90
2023-06-22T14:37:08.551Z,38.91
2023-06-22T14:39:36.103Z,39.36
2023-06-22T14:42:07.464Z,40.06
2023-06-22T14:44:34.967Z,39.03
2023-06-22T14:47:02.655Z,39.19
2023-06-22T14:49:30.279Z,39.70
2023-06-22T14:51:57.733Z,39.29
2023-06-22T14:54:25.423Z,38.89
2023-06-22T14:56:52.842Z,39.13
2023-06-22T14:59:20.260Z,39.73
2023-06-22T15:01:48.296Z,40.11
2023-06-22T15:04:16.915Z,39.98
2023-06-22T15:06:45.492Z,40.52
2023-06-22T15:09:12.930Z,40.71
2023-06-22T15:11:40.520Z,40.63
2023-06-22T15:14:08.858Z,39.77
2023-06-22T15:16:37.384Z,39.60
2023-06-22T15:19:04.801Z,39.10
2023-06-22T15:21:32.858Z,39.77
2023-06-22T15:24:00.323Z,39.64
2023-06-22T15:26:27.700Z,39.93
2023-06-22T15:28:56.112Z,39.70
2023-06-22T15:31:24.111Z,39.02
2023-06-22T15:33:51.692Z,39.82
2023-06-22T15:36:19.519Z,39.25
2023-06-22T15:38:48.395Z,38.14
2023-06-22T15:41:15.801Z,37.82
2023-06-22T15:43:43.285Z,38.15
2023-06-22T15:46:10.744Z,37.57
2023-06-22T15:48:38.131Z,37.66
2023-06-22T15:51:05.640Z,37.62
2023-06-22T15:53:33.139Z,37.75
2023-06-22T15:56:00.640Z,38.32
2023-06-22T15:58:28.104Z,38.01
2023-06-22T16:00:55.534Z,37.94
2023-06-22T16:03:24.117Z,38.19
2023-06-22T16:05:51.856Z,37.71
2023-06-22T16:08:19.497Z,38.16
2023-06-22T16:13:32.432Z,37.16
2023-06-22T16:16:00.222Z,37.41
2023-06-22T16:18:28.107Z,36.75
2023-06-22T16:20:55.705Z,37.27
2023-06-22T16:23:23.918Z,37.69
2023-06-22T16:25:51.336Z,37.40
2023-06-22T16:28:18.867Z,37.30
2023-06-22T16:30:46.584Z,36.58
2023-06-22T16:33:14.063Z,35.96
2023-06-22T16:35:42.153Z,36.05
2023-06-22T16:38:13.250Z,36.55
2023-06-22T16:40:40.962Z,37.17
2023-06-22T16:43:08.435Z,37.00
2023-06-22T16:45:35.898Z,37.14
2023-06-22T16:48:03.604Z,36.21
2023-06-22T16:50:31.584Z,36.16
2023-06-22T16:52:59.163Z,36.90
2023-06-22T16:55:31.101Z,37.58
2023-06-22T16:57:59.362Z,37.77
2023-06-22T17:00:26.767Z,38.12
2023-06-22T17:02:55.437Z,37.76
2023-06-22T17:05:23.691Z,37.34
2023-06-22T17:07:57.828Z,37.62
2023-06-22T17:10:25.318Z,38.13
2023-06-22T17:12:54.598Z,38.17
2023-06-22T17:15:22.913Z,38.62
2023-06-22T17:17:51.835Z,38.51
2023-06-22T17:20:19.590Z,39.04
2023-06-22T17:22:47.259Z,39.34
2023-06-22T17:25:16.246Z,39.16
2023-06-22T17:27:49.028Z,39.63
2023-06-22T17:30:21.719Z,39.46
2023-06-22T17:32:49.769Z,39.38
2023-06-22T17:35:17.377Z,39.98
2023-06-22T17:38:01.392Z,39.73
2023-06-22T17:40:31.414Z,39.76
2023-06-22T17:43:08.201Z,40.25
2023-06-22T17:45:48.413Z,40.42
2023-06-22T17:48:15.981Z,41.21
2023-06-22T17:50:43.807Z,41.19
2023-06-22T17:53:14.859Z,41.11
2023-06-22T17:55:42.305Z,41.14
2023-06-22T17:58:09.858Z,41.80
2023-06-22T18:00:38.128Z,42.60
2023-06-22T18:03:06.058Z,42.56
2023-06-22T18:05:35.756Z,43.99
2023-06-22T18:08:05.646Z,44.57
2023-06-22T18:10:35.312Z,44.98
2023-06-22T18:13:07.038Z,45.62
2023-06-22T18:15:36.404Z,45.84
2023-06-22T18:18:04.413Z,46.08
2023-06-22T18:20:36.334Z,46.76
2023-06-22T18:23:04.383Z,46.57
2023-06-22T18:25:34.928Z,46.91
2023-06-22T18:28:02.873Z,47.72
2023-06-22T18:30:30.929Z,47.64
2023-06-22T18:32:59.539Z,48.27
2023-06-22T18:35:27.550Z,48.50
2023-06-22T18:37:56.362Z,49.55
2023-06-22T18:40:24.193Z,50.33
2023-06-22T18:42:51.727Z,50.82
2023-06-22T18:45:29.469Z,51.55
2023-06-22T18:48:04.652Z,51.71
2023-06-22T18:50:37.544Z,51.89
2023-06-22T18:53:06.395Z,52.45
2023-06-22T18:55:34.398Z,52.38
2023-06-22T18:58:16.189Z,51.39
2023-06-22T19:00:43.877Z,51.09
2023-06-22T19:03:29.446Z,50.46
2023-06-22T19:05:57.048Z,50.11
2023-06-22T19:08:25.438Z,50.35
2023-06-22T19:10:52.998Z,50.07
2023-06-22T19:13:21.610Z,50.11
2023-06-22T19:15:53.314Z,50.40
2023-06-22T19:18:22.961Z,50.08
2023-06-22T19:21:00.551Z,50.56
2023-06-22T19:23:41.280Z,50.85
2023-06-22T19:26:11.136Z,50.70
2023-06-22T19:28:52.132Z,50.26
2023-06-22T19:31:21.577Z,50.41
2023-06-22T19:34:14.814Z,49.93
2023-06-22T19:36:42.415Z,50.61
2023-06-22T19:39:12.007Z,50.14
2023-06-22T19:41:40.149Z,48.78
2023-06-22T19:44:07.718Z,48.51
2023-06-22T19:46:35.686Z,48.47
2023-06-22T19:49:03.422Z,48.31
2023-06-22T19:51:35.053Z,48.48
2023-06-22T19:54:10.303Z,48.59
2023-06-22T19:56:38.290Z,48.81
2023-06-22T19:59:14.221Z,49.22
2023-06-22T20:01:42.673Z,49.66
2023-06-22T20:04:11.039Z,49.74
2023-06-22T20:06:39.221Z,50.41
2023-06-22T20:09:07.882Z,50.57
2023-06-22T20:11:41.292Z,50.94
2023-06-22T20:14:08.944Z,50.90
2023-06-22T20:16:56.476Z,51.03
2023-06-22T20:19:37.276Z,50.91
2023-06-22T20:22:08.473Z,50.96
2023-06-22T20:24:37.684Z,50.71
2023-06-22T20:27:12.853Z,50.92
2023-06-22T20:29:41.933Z,50.86
2023-06-22T20:32:15.435Z,50.80
2023-06-22T20:34:48.274Z,50.69
2023-06-22T20:37:19.822Z,50.88
2023-06-22T20:39:49.510Z,50.86
2023-06-22T20:42:18.898Z,50.92
2023-06-22T20:44:51.442Z,50.98
2023-06-22T20:47:21.949Z,50.38
2023-06-22T20:49:50.616Z,49.98
2023-06-22T20:52:18.968Z,49.83
2023-06-22T20:54:46.834Z,49.67
2023-06-22T20:57:14.418Z,49.62
2023-06-22T20:59:42.002Z,49.57
2023-06-22T21:02:09.506Z,49.90
2023-06-22T21:04:38.207Z,49.95
2023-06-22T21:07:06.819Z,50.22
2023-06-22T21:09:45.982Z,50.27
2023-06-22T21:12:18.677Z,50.37
2023-06-22T21:14:46.276Z,50.86
2023-06-22T21:17:13.841Z,50.97
2023-06-22T21:19:41.239Z,51.32
2023-06-22T21:22:08.872Z,51.89
2023-06-22T21:24:36.335Z,51.95
2023-06-22T21:27:04.292Z,52.43
2023-06-22T21:29:31.752Z,52.26
2023-06-22T21:31:59.352Z,52.72
2023-06-22T21:34:27.151Z,53.25
2023-06-22T21:36:56.297Z,53.90
2023-06-22T21:39:23.907Z,54.41
2023-06-22T21:41:51.406Z,55.42
2023-06-22T21:44:18.806Z,55.46
2023-06-22T21:46:46.376Z,56.04
2023-06-22T21:49:13.886Z,56.44
2023-06-22T21:51:41.368Z,56.61
2023-06-22T21:54:08.933Z,56.76
2023-06-22T21:56:36.487Z,56.65
2023-06-22T21:59:03.975Z,56.88
2023-06-22T22:01:31.510Z,56.93
2023-06-22T22:03:59.093Z,56.66
2023-06-22T22:06:28.953Z,56.90
2023-06-22T22:08:56.412Z,57.31
2023-06-22T22:11:24.188Z,57.21
2023-06-22T22:13:52.213Z,56.92
2023-06-22T22:16:20.320Z,56.78
2023-06-22T22:18:48.230Z,57.10
2023-06-22T22:21:15.902Z,57.82
2023-06-22T22:23:43.369Z,57.89
2023-06-22T22:26:10.852Z,57.76
2023-06-22T22:28:38.398Z,57.09
2023-06-22T22:31:05.911Z,57.27
2023-06-22T22:33:33.357Z,57.71
2023-06-22T22:36:03.593Z,57.87
2023-06-22T22:38:31.241Z,57.70
2023-06-22T22:40:58.752Z,57.98
2023-06-22T22:43:26.185Z,58.64
2023-06-22T22:45:53.630Z,58.99
2023-06-22T22:48:21.160Z,59.41
2023-06-22T22:50:48.710Z,58.81
2023-06-22T22:53:18.561Z,58.81
2023-06-22T22:55:46.026Z,59.20
2023-06-22T22:58:13.586Z,58.75
2023-06-22T23:00:41.580Z,59.16
2023-06-22T23:03:09.099Z,59.65
2023-06-22T23:05:36.669Z,59.87
2023-06-22T23:08:05.209Z,60.01
2023-06-22T23:10:32.776Z,60.80
2023-06-22T23:13:00.397Z,60.91
2023-06-22T23:15:27.989Z,61.36
2023-06-22T23:17:55.513Z,61.71
2023-06-22T23:20:23.087Z,63.04
2023-06-22T23:22:58.602Z,63.93
2023-06-22T23:25:26.753Z,64.37
2023-06-22T23:27:54.396Z,64.74
2023-06-22T23:30:22.007Z,64.50
2023-06-22T23:32:49.890Z,64.25
2023-06-22T23:35:17.536Z,64.59
2023-06-22T23:37:46.856Z,64.47
2023-06-22T23:40:17.928Z,64.99
2023-06-22T23:42:49.052Z,65.50
2023-06-22T23:45:20.979Z,65.97
2023-06-22T23:47:50.080Z,65.59
2023-06-22T23:50:19.389Z,65.69
2023-06-22T23:52:50.126Z,66.04
2023-06-22T23:55:19.598Z,65.50
2023-06-22T23:57:47.382Z,65.81
